Terminal Aerodrome Forecast
Issued by NWS

Home | Current Version | Previous Version | Text Only | Print | Product List | Glossary Off
Versions: 1 2 3 4 5 6 7 8 9 10 11 12

000
FTUS41 KCLE 151100
TAFFDY
TAF
KFDY 151123Z 1512/1612 30011G18KT P6SM BKN015 OVC060
      TEMPO 1512/1514 -SHSN
     FM151400 31015G25KT P6SM SCT025 BKN050
      TEMPO 1514/1518 BKN025
     FM152000 31018G28KT P6SM SCT035 BKN060
     FM160000 31011KT P6SM SCT250
     FM160300 30003KT P6SM SKC=

USA.gov is the U.S. government's official web portal to all federal, state and local government web resources and services.